Time;durP1;ratioP1;P1;durP2;ratioP2;P2;SDS_P1;SDS_P2;PMS_P1;PMS_P2;Temp;Humidity;BMP_temperature;BMP_pressure;BME280_temperature;BME280_humidity;BME280_pressure;Samples;Min_cycle;Max_cycle;Signal;HPM_P1;HPM_P2
2020/12/24 00:00:46;;;;;;;1.83;0.70;;;;;;;11.10;82.53;99303.16;5054348;28;20206;-76
2020/12/24 00:03:11;;;;;;;1.60;1.30;;;;;;;11.11;82.52;99301.22;5054196;28;20167;-76
2020/12/24 00:05:37;;;;;;;1.07;0.70;;;;;;;11.08;83.34;99294.50;5054216;28;20187;-76
2020/12/24 00:08:03;;;;;;;3.40;1.40;;;;;;;11.06;82.53;99301.47;5054200;28;20183;-76
2020/12/24 00:10:28;;;;;;;0.60;0.60;;;;;;;11.04;82.68;99301.81;5054158;28;20254;-76
2020/12/24 00:12:54;;;;;;;0.50;0.50;;;;;;;11.09;81.90;99314.44;5053716;28;20180;-76
2020/12/24 00:15:19;;;;;;;1.37;0.73;;;;;;;11.07;82.65;99306.59;5054330;28;20262;-76
2020/12/24 00:17:45;;;;;;;1.40;1.17;;;;;;;10.99;83.74;99313.78;5054016;28;20178;-76
2020/12/24 00:20:11;;;;;;;1.27;1.10;;;;;;;10.90;84.31;99313.06;5052680;28;20241;-76
2020/12/24 00:22:36;;;;;;;0.90;0.73;;;;;;;10.84;84.56;99322.63;5054008;28;20305;-76
2020/12/24 00:25:02;;;;;;;4.47;1.30;;;;;;;10.73;84.44;99314.09;5053948;28;20250;-76
2020/12/24 00:27:27;;;;;;;0.73;0.73;;;;;;;10.65;84.32;99316.91;5053767;28;20183;-76
2020/12/24 00:29:52;;;;;;;0.83;0.60;;;;;;;10.56;82.89;99321.66;5054005;28;20231;-76
2020/12/24 00:32:18;;;;;;;0.70;0.40;;;;;;;10.40;82.12;99327.00;5053705;28;20574;-76
2020/12/24 00:34:43;;;;;;;0.50;0.20;;;;;;;10.28;82.01;99327.78;5052401;28;20195;-75
2020/12/24 00:37:09;;;;;;;1.23;0.40;;;;;;;10.20;82.05;99327.81;5053469;28;20183;-76
2020/12/24 00:39:34;;;;;;;1.67;0.50;;;;;;;10.11;83.44;99304.13;5053514;28;20663;-75
2020/12/24 00:41:59;;;;;;;0.37;0.37;;;;;;;10.01;84.71;99312.75;5053516;28;20175;-75
2020/12/24 00:44:25;;;;;;;0.93;0.30;;;;;;;9.96;85.09;99317.59;5053428;28;20180;-76
2020/12/24 00:46:52;;;;;;;1.47;0.30;;;;;;;9.92;84.84;99313.94;5052839;28;20172;-76
2020/12/24 00:49:17;;;;;;;1.63;0.77;;;;;;;9.91;84.76;99310.44;5052855;28;20195;-76
2020/12/24 00:51:42;;;;;;;1.10;0.60;;;;;;;9.88;85.00;99283.81;5053544;28;20689;-76
2020/12/24 00:54:08;;;;;;;0.23;0.23;;;;;;;9.88;84.63;99272.91;5053391;28;20213;-76
2020/12/24 00:56:34;;;;;;;0.73;0.47;;;;;;;9.87;84.83;99276.78;5053124;28;20366;-76
2020/12/24 00:58:59;;;;;;;1.00;0.30;;;;;;;9.86;84.83;99274.38;5053394;28;20650;-76
2020/12/24 01:01:25;;;;;;;0.60;0.50;;;;;;;9.86;84.50;99260.75;5053125;28;20206;-76
2020/12/24 01:03:50;;;;;;;2.83;0.70;;;;;;;9.82;84.67;99250.47;5053202;28;20175;-76
2020/12/24 01:06:15;;;;;;;1.20;0.60;;;;;;;9.79;84.99;99244.91;5053030;28;20261;-76
2020/12/24 01:08:41;;;;;;;1.37;0.57;;;;;;;9.75;84.79;99238.53;5053306;28;20634;-76
2020/12/24 01:11:06;;;;;;;1.60;0.23;;;;;;;9.73;84.99;99246.25;5052920;28;20646;-76
2020/12/24 01:13:32;;;;;;;2.07;0.73;;;;;;;9.70;84.52;99249.66;5052825;28;20179;-76
2020/12/24 01:15:57;;;;;;;3.20;0.60;;;;;;;9.60;85.20;99266.41;5052997;28;20270;-76
2020/12/24 01:18:23;;;;;;;1.13;0.67;;;;;;;9.62;84.20;99258.69;5052884;28;20183;-76
2020/12/24 01:20:48;;;;;;;2.37;0.47;;;;;;;9.53;84.38;99259.56;5052947;28;20241;-76
2020/12/24 01:23:13;;;;;;;2.20;0.53;;;;;;;9.56;83.52;99254.59;5052874;28;20560;-76
2020/12/24 01:25:39;;;;;;;4.00;1.00;;;;;;;9.53;83.28;99254.09;5052750;28;20182;-76
2020/12/24 01:28:04;;;;;;;0.70;0.50;;;;;;;9.46;83.21;99256.56;5052794;28;20171;-76
2020/12/24 01:30:30;;;;;;;0.10;0.10;;;;;;;9.49;82.38;99258.63;5052972;28;20182;-76
2020/12/24 01:32:55;;;;;;;1.17;0.60;;;;;;;9.47;82.04;99257.38;5052698;28;20194;-75
2020/12/24 01:35:21;;;;;;;0.67;0.60;;;;;;;9.46;81.69;99262.03;5052772;28;20202;-76
2020/12/24 01:37:46;;;;;;;1.20;0.60;;;;;;;9.45;81.51;99276.78;5052539;28;20254;-76
2020/12/24 01:40:11;;;;;;;2.80;0.93;;;;;;;9.45;80.32;99270.53;5052480;28;20203;-76
2020/12/24 01:42:37;;;;;;;1.87;0.60;;;;;;;9.40;79.99;99274.28;5052485;28;20191;-77
2020/12/24 01:45:03;;;;;;;1.80;1.10;;;;;;;9.39;79.81;99264.47;5052514;28;20178;-77
2020/12/24 01:47:29;;;;;;;2.57;1.27;;;;;;;9.45;79.09;99276.00;5052462;28;20226;-76
2020/12/24 01:49:54;;;;;;;0.90;0.90;;;;;;;9.48;78.47;99258.97;5052859;28;20611;-76
2020/12/24 01:52:35;;;;;;;5.83;0.80;;;;;;;9.39;78.80;99263.69;5052377;28;20171;-76
2020/12/24 01:55:04;;;;;;;4.70;1.43;;;;;;;9.37;78.54;99255.84;5052339;28;20768;-76
2020/12/24 01:57:30;;;;;;;4.07;2.00;;;;;;;9.44;77.52;99253.41;5052510;28;20207;-76
2020/12/24 01:59:56;;;;;;;2.53;1.80;;;;;;;9.39;77.78;99255.50;5051788;28;20241;-76
2020/12/24 02:02:22;;;;;;;2.63;1.23;;;;;;;9.36;77.51;99251.53;5052033;28;20266;-76
2020/12/24 02:04:47;;;;;;;1.17;1.07;;;;;;;9.30;77.66;99246.63;5052450;28;20560;-75
2020/12/24 02:07:14;;;;;;;3.97;1.77;;;;;;;9.28;77.52;99268.75;5051921;28;20274;-76
2020/12/24 02:09:40;;;;;;;6.57;1.37;;;;;;;9.26;77.06;99235.59;5051906;28;20183;-75
2020/12/24 02:12:05;;;;;;;4.07;1.47;;;;;;;9.22;76.76;99218.28;5052349;28;20275;-76
2020/12/24 02:14:31;;;;;;;2.77;1.80;;;;;;;9.19;76.32;99221.69;5051741;28;20665;-76
2020/12/24 02:16:56;;;;;;;2.03;1.77;;;;;;;9.22;76.74;99235.44;5051778;28;20194;-75
2020/12/24 02:19:21;;;;;;;1.90;1.50;;;;;;;9.19;76.06;99247.00;5051972;28;20175;-75
2020/12/24 02:21:47;;;;;;;4.47;1.23;;;;;;;9.10;76.33;99248.97;5051848;28;20682;-76
2020/12/24 02:24:12;;;;;;;6.03;1.10;;;;;;;9.11;76.58;99266.13;5051756;28;20202;-75
2020/12/24 02:26:38;;;;;;;1.67;1.43;;;;;;;9.04;77.52;99250.31;5051680;28;20258;-75
2020/12/24 02:29:03;;;;;;;2.63;1.23;;;;;;;8.99;78.09;99250.50;5051884;28;20808;-76
2020/12/24 02:31:28;;;;;;;1.47;0.70;;;;;;;8.97;78.29;99265.56;5052013;28;20570;-76
2020/12/24 02:33:53;;;;;;;1.87;0.50;;;;;;;8.90;78.49;99256.00;5051644;28;20581;-75
2020/12/24 02:36:19;;;;;;;1.13;0.90;;;;;;;8.89;78.43;99259.84;5051398;28;20209;-75
2020/12/24 02:38:44;;;;;;;2.40;1.27;;;;;;;8.93;77.83;99252.59;5051511;28;20595;-76
2020/12/24 02:41:10;;;;;;;7.33;2.13;;;;;;;8.98;77.10;99257.09;5051329;28;20202;-76
2020/12/24 02:43:35;;;;;;;2.40;0.80;;;;;;;9.07;76.72;99254.28;5051369;28;20167;-75
2020/12/24 02:46:00;;;;;;;0.70;0.53;;;;;;;9.04;76.64;99244.06;5051461;28;20171;-76
2020/12/24 02:48:26;;;;;;;5.27;1.50;;;;;;;9.01;77.08;99231.09;5051182;28;20187;-76
2020/12/24 02:50:51;;;;;;;3.37;1.90;;;;;;;8.98;76.86;99223.59;5051309;28;20190;-76
2020/12/24 02:53:16;;;;;;;1.40;1.30;;;;;;;8.89;77.46;99199.13;5051098;28;20539;-74
2020/12/24 02:55:42;;;;;;;5.37;2.00;;;;;;;8.90;76.95;99215.13;5051260;28;20179;-76
2020/12/24 02:58:07;;;;;;;2.20;1.90;;;;;;;8.92;76.58;99212.88;5051154;28;20202;-75
2020/12/24 03:00:33;;;;;;;6.27;1.03;;;;;;;8.91;76.84;99235.81;5051155;28;20701;-75
2020/12/24 03:02:58;;;;;;;3.27;1.40;;;;;;;8.84;77.04;99227.38;5051287;28;20266;-76
2020/12/24 03:05:23;;;;;;;3.47;1.73;;;;;;;8.78;76.58;99231.38;5051352;28;20171;-75
2020/12/24 03:07:50;;;;;;;2.57;1.57;;;;;;;8.74;77.13;99230.47;5050963;28;20171;-76
2020/12/24 03:10:15;;;;;;;4.80;1.93;;;;;;;8.66;77.36;99236.72;5050579;28;20178;-75
2020/12/24 03:12:41;;;;;;;3.67;1.80;;;;;;;8.57;77.35;99242.25;5050536;28;20163;-77
2020/12/24 03:15:06;;;;;;;3.50;2.03;;;;;;;8.55;76.82;99227.38;5051107;28;20197;-76
2020/12/24 03:17:32;;;;;;;4.13;1.80;;;;;;;8.57;77.09;99236.00;5050894;28;20171;-76
2020/12/24 03:19:57;;;;;;;1.93;1.13;;;;;;;8.57;76.40;99233.28;5050638;28;20202;-76
2020/12/24 03:22:22;;;;;;;5.43;1.37;;;;;;;8.55;76.76;99244.50;5051153;28;20171;-76
2020/12/24 03:24:48;;;;;;;2.93;1.47;;;;;;;8.53;76.28;99238.56;5050623;28;20220;-75
2020/12/24 03:27:13;;;;;;;6.03;1.50;;;;;;;8.51;76.88;99216.31;5050505;28;20171;-74
2020/12/24 03:29:38;;;;;;;5.87;1.67;;;;;;;8.50;76.41;99220.16;5050761;28;20175;-76
2020/12/24 03:32:07;;;;;;;8.57;1.70;;;;;;;8.52;75.61;99220.63;5050523;28;20183;-76
2020/12/24 03:34:32;;;;;;;3.57;1.67;;;;;;;8.50;76.41;99212.00;5051078;28;20545;-75
2020/12/24 03:36:57;;;;;;;4.43;1.23;;;;;;;8.45;76.71;99228.53;5050200;28;20167;-76
2020/12/24 03:39:23;;;;;;;4.70;1.27;;;;;;;8.41;76.94;99200.38;5050171;28;20171;-76
2020/12/24 03:41:48;;;;;;;4.70;1.73;;;;;;;8.34;76.97;99208.22;5050740;28;20190;-76
2020/12/24 03:44:13;;;;;;;4.23;1.10;;;;;;;8.26;77.08;99190.00;5050626;28;20262;-76
2020/12/24 03:46:39;;;;;;;10.80;2.27;;;;;;;8.22;77.21;99213.53;5050495;28;20578;-75
2020/12/24 03:49:05;;;;;;;3.17;1.57;;;;;;;8.25;76.88;99202.81;5050456;28;20193;-75
2020/12/24 03:51:30;;;;;;;4.53;2.60;;;;;;;8.25;77.24;99227.28;5050518;28;20642;-75
2020/12/24 03:53:56;;;;;;;4.27;1.90;;;;;;;8.27;76.91;99222.31;5050567;28;20214;-75
2020/12/24 03:56:21;;;;;;;5.03;1.43;;;;;;;8.24;77.31;99217.50;5050617;28;20201;-75
2020/12/24 03:58:46;;;;;;;0.30;0.30;;;;;;;8.19;77.45;99220.41;5049165;28;20232;-76
2020/12/24 04:01:12;;;;;;;2.37;1.33;;;;;;;8.12;78.05;99220.13;5050412;28;20651;-75
2020/12/24 04:03:37;;;;;;;3.83;1.33;;;;;;;8.05;77.80;99209.75;5050440;28;20352;-74
2020/12/24 04:06:04;;;;;;;4.77;1.33;;;;;;;8.06;77.97;99205.91;5050546;28;20237;-75
2020/12/24 04:08:29;;;;;;;8.67;1.30;;;;;;;8.07;76.73;99220.28;5051118;28;20269;-75
2020/12/24 04:10:54;;;;;;;0.80;0.80;;;;;;;8.13;75.97;99216.28;5050412;28;20263;-75
2020/12/24 04:13:20;;;;;;;4.40;2.00;;;;;;;8.10;76.07;99225.09;5050548;28;20186;-75
2020/12/24 04:15:45;;;;;;;5.83;1.63;;;;;;;8.13;75.54;99213.56;5050486;28;20190;-76
2020/12/24 04:18:10;;;;;;;5.03;1.80;;;;;;;8.14;76.01;99227.97;5050710;28;20602;-75
2020/12/24 04:20:36;;;;;;;6.03;2.00;;;;;;;8.15;76.16;99227.66;5050682;28;20238;-75
2020/12/24 04:23:01;;;;;;;3.37;1.57;;;;;;;8.22;75.55;99227.94;5053357;28;20218;-75
2020/12/24 04:25:26;;;;;;;2.43;2.20;;;;;;;8.24;75.74;99225.66;5054697;28;20438;-75
2020/12/24 04:27:52;;;;;;;5.07;2.17;;;;;;;8.26;75.49;99220.72;5054195;28;20266;-76
2020/12/24 04:30:17;;;;;;;3.27;1.60;;;;;;;8.25;76.25;99213.69;5057260;28;20202;-76
2020/12/24 04:32:43;;;;;;;1.83;1.10;;;;;;;8.23;76.63;99207.75;5061020;28;20175;-76
2020/12/24 04:35:08;;;;;;;7.07;1.63;;;;;;;8.22;76.98;99203.44;5057497;28;20181;-77
2020/12/24 04:37:33;;;;;;;2.43;0.97;;;;;;;8.18;77.31;99207.94;5053878;28;20179;-76
2020/12/24 04:39:59;;;;;;;0.97;0.73;;;;;;;8.16;76.79;99202.03;5053736;28;20285;-76
2020/12/24 04:42:24;;;;;;;2.97;1.40;;;;;;;8.12;77.72;99203.03;5053794;28;20242;-76
2020/12/24 04:44:50;;;;;;;2.40;0.87;;;;;;;8.05;77.90;99207.03;5053614;28;20603;-75
2020/12/24 04:47:19;;;;;;;3.23;1.33;;;;;;;8.04;76.93;99208.16;5053455;28;20190;-77
2020/12/24 04:49:45;;;;;;;2.23;1.17;;;;;;;8.04;77.06;99219.03;5053537;28;20682;-76
2020/12/24 04:52:13;;;;;;;2.40;1.30;;;;;;;8.07;76.88;99199.34;5053404;28;20187;-76
2020/12/24 04:54:39;;;;;;;2.67;1.53;;;;;;;8.03;77.36;99192.94;5053279;28;20465;-75
2020/12/24 04:57:09;;;;;;;3.70;1.47;;;;;;;8.00;77.23;99209.13;5053455;28;20176;-75
2020/12/24 04:59:36;;;;;;;1.07;1.07;;;;;;;8.00;77.66;99187.38;5051909;28;20631;-75
2020/12/24 05:02:02;;;;;;;4.33;1.30;;;;;;;7.97;77.53;99182.59;5053436;28;20248;-75
2020/12/24 05:04:32;;;;;;;2.93;1.33;;;;;;;7.96;77.32;99175.56;5051816;28;20757;-76
2020/12/24 05:07:05;;;;;;;5.43;1.63;;;;;;;7.96;77.03;99198.09;5053107;28;20186;-76
2020/12/24 05:09:32;;;;;;;2.13;1.30;;;;;;;7.98;77.63;99168.66;5053333;28;20171;-77
2020/12/24 05:11:57;;;;;;;1.33;1.20;;;;;;;7.97;77.52;99174.44;5051883;28;20585;-76
2020/12/24 05:14:25;;;;;;;7.03;1.47;;;;;;;7.96;77.84;99179.06;5053059;28;20171;-76
2020/12/24 05:17:04;;;;;;;3.57;1.77;;;;;;;7.95;77.82;99173.94;5052970;28;20175;-76
2020/12/24 05:19:32;;;;;;;2.43;1.00;;;;;;;7.95;77.35;99182.09;5053058;28;20631;-76
2020/12/24 05:21:58;;;;;;;4.10;1.73;;;;;;;7.93;77.76;99181.63;5053322;28;20647;-76
2020/12/24 05:24:31;;;;;;;2.80;1.60;;;;;;;7.94;77.50;99186.72;5052964;28;20179;-76
2020/12/24 05:27:08;;;;;;;2.47;0.90;;;;;;;7.95;77.49;99171.22;5052912;28;20266;-76
2020/12/24 05:29:37;;;;;;;1.27;0.70;;;;;;;7.93;77.24;99182.41;5052784;28;20248;-75
2020/12/24 05:32:02;;;;;;;3.00;1.57;;;;;;;7.92;77.98;99188.19;5052704;28;20637;-76
2020/12/24 05:34:28;;;;;;;2.90;0.93;;;;;;;7.95;77.38;99176.66;5052044;28;20274;-75
2020/12/24 05:37:08;;;;;;;2.20;1.30;;;;;;;7.90;78.43;99193.16;5053114;28;20186;-75
2020/12/24 05:39:34;;;;;;;5.37;1.90;;;;;;;7.79;79.57;99189.19;5052626;28;20181;-76
2020/12/24 05:42:03;;;;;;;1.57;1.20;;;;;;;7.68;80.89;99192.25;5052384;28;20257;-76
2020/12/24 05:44:28;;;;;;;2.80;2.00;;;;;;;7.58;81.62;99189.88;5052738;28;20176;-76
2020/12/24 05:46:53;;;;;;;4.53;1.73;;;;;;;7.50;82.52;99187.94;5052438;28;20617;-75
2020/12/24 05:49:21;;;;;;;3.60;1.57;;;;;;;7.46;82.64;99192.44;5051096;28;20647;-76
2020/12/24 05:51:55;;;;;;;4.10;2.13;;;;;;;7.39;83.70;99189.41;5051132;28;20179;-76
2020/12/24 05:54:21;;;;;;;9.40;1.37;;;;;;;7.31;84.27;99195.63;5051308;28;20597;-75
2020/12/24 05:56:47;;;;;;;5.40;1.93;;;;;;;7.23;84.90;99186.34;5052270;28;20171;-77
2020/12/24 05:59:18;;;;;;;2.37;1.77;;;;;;;7.17;85.38;99193.09;5052207;28;20183;-75
2020/12/24 06:02:00;;;;;;;3.13;1.60;;;;;;;7.05;86.25;99182.84;5052485;28;20253;-76
2020/12/24 06:04:49;;;;;;;3.87;2.00;;;;;;;6.99;86.92;99205.88;5052209;28;20172;-76
2020/12/24 06:07:21;;;;;;;9.33;2.13;;;;;;;6.97;86.64;99185.56;5041396;28;20276;-76
2020/12/24 06:09:51;;;;;;;6.17;2.17;;;;;;;6.88;87.84;99184.75;5050951;28;20221;-76
2020/12/24 06:12:24;;;;;;;5.80;2.50;;;;;;;6.78;88.11;99200.22;5051996;28;20183;-76
2020/12/24 06:14:52;;;;;;;14.27;1.70;;;;;;;6.76;88.19;99196.22;5032084;28;20205;-76
2020/12/24 06:17:19;;;;;;;2.40;2.20;;;;;;;6.65;88.76;99187.59;5031794;28;20211;-76
2020/12/24 06:19:45;;;;;;;4.70;2.27;;;;;;;6.62;89.54;99184.72;5031954;28;20176;-76
2020/12/24 06:22:11;;;;;;;4.40;1.83;;;;;;;6.56;89.09;99193.00;5031751;28;20226;-76
2020/12/24 06:24:40;;;;;;;4.53;2.77;;;;;;;6.63;88.21;99191.72;5031695;28;20573;-76
2020/12/24 06:27:10;;;;;;;1.77;1.50;;;;;;;6.63;88.28;99172.72;5031489;28;20190;-76
2020/12/24 06:29:41;;;;;;;3.53;1.50;;;;;;;6.57;88.68;99175.59;5031709;28;20207;-76
2020/12/24 06:32:09;;;;;;;3.07;1.67;;;;;;;6.56;88.88;99190.28;5031529;28;20184;-76
2020/12/24 06:34:40;;;;;;;2.50;1.43;;;;;;;6.54;89.38;99191.72;5031653;28;20708;-76
2020/12/24 06:37:17;;;;;;;3.13;0.83;;;;;;;6.52;89.52;99189.34;5031522;28;20160;-76
2020/12/24 06:39:45;;;;;;;1.43;1.03;;;;;;;6.48;89.74;99185.63;5031377;28;20262;-76
2020/12/24 06:42:35;;;;;;;3.10;1.00;;;;;;;6.45;90.19;99185.47;5031275;28;20171;-76
2020/12/24 06:45:03;;;;;;;3.73;1.17;;;;;;;6.45;90.47;99199.03;5030721;28;20180;-76
2020/12/24 06:47:28;;;;;;;1.13;0.53;;;;;;;6.44;90.82;99194.72;5030801;28;20241;-76
2020/12/24 06:49:54;;;;;;;3.50;1.57;;;;;;;6.43;90.72;99209.41;5031326;28;20183;-76
2020/12/24 06:52:29;;;;;;;4.10;1.17;;;;;;;6.40;91.00;99194.56;5031230;28;20275;-76
2020/12/24 06:55:14;;;;;;;1.83;1.37;;;;;;;6.41;90.66;99215.16;5030992;28;20254;-76
2020/12/24 06:57:44;;;;;;;3.40;1.50;;;;;;;6.40;90.94;99224.41;5031186;28;20249;-75
2020/12/24 07:00:23;;;;;;;2.23;1.50;;;;;;;6.32;90.79;99249.56;5030867;28;20196;-76
2020/12/24 07:02:51;;;;;;;0.70;0.70;;;;;;;5.90;89.76;99234.66;5030978;28;20207;-75
2020/12/24 07:05:41;;;;;;;0.40;0.40;;;;;;;5.53;90.17;99238.56;5030770;28;20180;-75
2020/12/24 07:08:07;;;;;;;0.10;0.10;;;;;;;5.31;91.06;99245.53;5031019;28;20183;-75
2020/12/24 07:10:46;;;;;;;0.47;0.30;;;;;;;5.22;91.33;99252.81;5029704;28;20176;-76
2020/12/24 07:13:41;;;;;;;0.23;0.20;;;;;;;5.12;91.55;99254.94;5030812;28;20175;-76
2020/12/24 07:16:09;;;;;;;0.20;0.20;;;;;;;5.06;91.55;99265.88;5031050;28;20176;-76
2020/12/24 07:18:39;;;;;;;0.40;0.40;;;;;;;5.03;91.90;99280.00;5030933;28;20270;-76
2020/12/24 07:21:06;;;;;;;1.03;1.00;;;;;;;4.95;92.28;99283.44;5030807;28;20258;-76
2020/12/24 07:23:39;;;;;;;0.80;0.73;;;;;;;4.82;92.10;99297.78;5030753;28;20744;-76
2020/12/24 07:26:08;;;;;;;0.30;0.30;;;;;;;4.64;91.37;99301.38;5030636;28;20415;-76
2020/12/24 07:28:41;;;;;;;0.80;0.80;;;;;;;4.48;92.11;99307.09;5030880;28;20465;-75
2020/12/24 07:31:08;;;;;;;1.37;1.30;;;;;;;4.30;92.19;99320.66;5030888;28;20199;-76
2020/12/24 07:33:34;;;;;;;1.25;1.25;;;;;;;4.15;92.55;99327.13;5029695;28;20425;-76
2020/12/24 07:36:00;;;;;;;0.50;0.50;;;;;;;3.95;91.78;99327.47;5031053;28;20168;-76
2020/12/24 07:38:28;;;;;;;0.30;0.30;;;;;;;3.70;91.04;99337.56;5030657;28;20936;-74
2020/12/24 07:40:54;;;;;;;0.30;0.30;;;;;;;3.37;90.93;99344.81;5030385;28;20212;-74
2020/12/24 07:43:19;;;;;;;1.27;0.30;;;;;;;3.18;91.83;99343.97;5041655;28;20409;-73
2020/12/24 07:45:45;;;;;;;1.27;0.70;;;;;;;3.12;92.59;99358.63;5050433;28;20164;-73
2020/12/24 07:48:19;;;;;;;0.47;0.47;;;;;;;3.05;92.98;99358.19;5050193;28;20244;-72
2020/12/24 07:50:45;;;;;;;0.63;0.63;;;;;;;2.93;93.09;99367.47;5050401;28;20254;-73
2020/12/24 07:53:16;;;;;;;0.77;0.77;;;;;;;2.86;93.09;99385.09;5048811;28;20426;-73
2020/12/24 07:55:42;;;;;;;0.50;0.50;;;;;;;2.81;93.83;99396.75;5050516;28;20482;-72
2020/12/24 07:58:12;;;;;;;0.23;0.23;;;;;;;2.73;93.51;99391.94;5053276;28;20418;-74
2020/12/24 08:00:53;;;;;;;0.30;0.30;;;;;;;2.59;93.18;99407.19;5054262;28;20221;-74
2020/12/24 08:03:19;;;;;;;1.17;0.43;;;;;;;2.52;93.48;99410.22;5054232;28;20418;-72
2020/12/24 08:05:47;;;;;;;0.20;0.20;;;;;;;2.34;93.00;99419.81;5053977;28;20452;-74
2020/12/24 08:08:13;;;;;;;0.30;0.30;;;;;;;2.29;93.34;99422.53;5054310;28;20442;-73
2020/12/24 08:10:43;;;;;;;0.30;0.30;;;;;;;2.24;93.36;99436.06;5054376;28;20496;-73
2020/12/24 08:13:10;;;;;;;0.20;0.20;;;;;;;2.25;93.34;99440.38;5054021;28;20421;-73
2020/12/24 08:15:40;;;;;;;0.40;0.40;;;;;;;2.23;93.97;99450.63;5054148;28;20416;-73
2020/12/24 08:18:09;;;;;;;0.47;0.43;;;;;;;2.25;93.98;99451.16;5053793;28;20463;-74
2020/12/24 08:20:57;;;;;;;0.60;0.60;;;;;;;2.22;93.96;99457.09;5052510;28;20479;-74
2020/12/24 08:23:41;;;;;;;0.20;0.20;;;;;;;2.11;94.23;99466.34;5052655;28;20532;-73
2020/12/24 08:26:10;;;;;;;0.30;0.30;;;;;;;2.09;94.50;99471.19;5045741;28;20411;-74
2020/12/24 08:28:38;;;;;;;0.43;0.43;;;;;;;2.08;94.15;99467.69;5052636;28;20440;-73
2020/12/24 08:31:08;;;;;;;0.67;0.67;;;;;;;2.07;94.43;99463.41;5033730;28;20429;-73
2020/12/24 08:33:34;;;;;;;1.00;1.00;;;;;;;2.11;94.52;99471.72;5041748;28;20417;-75
2020/12/24 08:36:16;;;;;;;1.70;1.60;;;;;;;2.16;94.94;99478.97;5053694;28;20406;-74
2020/12/24 08:38:42;;;;;;;1.33;1.23;;;;;;;2.18;95.00;99493.78;5053534;28;20252;-73
2020/12/24 08:41:18;;;;;;;2.60;2.40;;;;;;;2.21;95.30;99492.41;5053245;28;20485;-73
2020/12/24 08:43:49;;;;;;;3.57;2.67;;;;;;;2.26;95.46;99498.56;5053508;28;20167;-73
2020/12/24 08:46:15;;;;;;;3.63;3.33;;;;;;;2.26;95.49;99492.38;5053315;28;20458;-73
2020/12/24 08:48:40;;;;;;;2.00;1.90;;;;;;;2.30;95.24;99496.91;5053344;28;21143;-74
2020/12/24 08:51:16;;;;;;;6.10;5.70;;;;;;;2.36;95.69;99509.28;5053687;28;20414;-74
2020/12/24 08:53:42;;;;;;;5.77;5.27;;;;;;;2.46;96.19;99507.59;5052875;28;20225;-73
2020/12/24 08:56:15;;;;;;;3.33;3.13;;;;;;;2.45;95.79;99514.88;5053181;28;20913;-73
2020/12/24 08:58:51;;;;;;;3.87;3.67;;;;;;;2.44;95.42;99520.53;5051847;28;20175;-74
2020/12/24 09:01:18;;;;;;;2.17;2.07;;;;;;;2.52;95.49;99519.97;5052993;28;20514;-69
2020/12/24 09:03:44;;;;;;;3.40;3.10;;;;;;;2.50;95.00;99517.53;5052887;28;20421;-68
2020/12/24 09:06:14;;;;;;;1.80;1.70;;;;;;;2.53;95.11;99532.34;5052959;28;20421;-73
2020/12/24 09:08:41;;;;;;;1.47;1.37;;;;;;;2.48;94.70;99535.91;5050591;28;20406;-74
2020/12/24 09:11:24;;;;;;;1.67;1.57;;;;;;;2.46;94.65;99539.94;5053005;28;20556;-73
2020/12/24 09:14:04;;;;;;;1.10;1.07;;;;;;;2.42;94.03;99546.97;5053122;28;20447;-73
2020/12/24 09:16:31;;;;;;;0.40;0.40;;;;;;;2.34;93.55;99559.97;5052460;28;20414;-75
2020/12/24 09:19:02;;;;;;;1.07;0.87;;;;;;;2.35;94.08;99555.38;5052687;28;20920;-73
2020/12/24 09:21:28;;;;;;;0.87;0.50;;;;;;;2.37;93.95;99570.19;5052567;28;20474;-72
2020/12/24 09:24:03;;;;;;;0.23;0.23;;;;;;;2.34;93.78;99576.16;5052587;28;20425;-73
2020/12/24 09:26:28;;;;;;;0.50;0.50;;;;;;;2.35;93.85;99591.22;5052649;28;20254;-73
2020/12/24 09:28:54;;;;;;;1.10;1.00;;;;;;;2.36;93.97;99597.44;5052838;28;20552;-73
2020/12/24 09:31:19;;;;;;;0.60;0.60;;;;;;;2.41;94.12;99596.59;5052412;28;20207;-73
2020/12/24 09:33:44;;;;;;;0.80;0.80;;;;;;;2.34;93.97;99603.09;5052380;28;20171;-73
2020/12/24 09:36:09;;;;;;;0.57;0.57;;;;;;;2.37;93.85;99610.63;5052599;28;20214;-76
2020/12/24 09:38:35;;;;;;;0.90;0.90;;;;;;;2.36;94.10;99613.59;5052609;28;20186;-75
2020/12/24 09:41:00;;;;;;;0.37;0.37;;;;;;;2.37;93.73;99620.59;5052159;28;20205;-76
2020/12/24 09:43:25;;;;;;;0.60;0.60;;;;;;;2.34;93.76;99624.66;5052189;28;20177;-75
2020/12/24 09:45:51;;;;;;;0.70;0.47;;;;;;;2.32;93.85;99631.41;5052171;28;20186;-76
2020/12/24 09:48:17;;;;;;;1.07;1.07;;;;;;;2.35;94.01;99628.16;5051808;28;20489;-75
2020/12/24 09:50:42;;;;;;;1.40;1.40;;;;;;;2.41;94.48;99628.94;5051991;28;20448;-72
2020/12/24 09:53:07;;;;;;;1.23;1.20;;;;;;;2.45;94.45;99643.44;5051944;28;20274;-72
2020/12/24 09:55:33;;;;;;;1.27;1.17;;;;;;;2.46;94.75;99642.38;5052213;28;20687;-72
2020/12/24 09:57:58;;;;;;;1.60;1.50;;;;;;;2.44;94.60;99642.66;5051518;28;20183;-72
2020/12/24 10:00:24;;;;;;;1.60;1.50;;;;;;;2.52;94.73;99646.66;5051626;28;20203;-73
2020/12/24 10:02:49;;;;;;;1.80;1.70;;;;;;;2.60;94.90;99640.69;5052155;28;20187;-73
2020/12/24 10:05:15;;;;;;;1.43;1.33;;;;;;;2.59;94.69;99649.84;5051881;28;20614;-73
2020/12/24 10:07:40;;;;;;;1.63;1.53;;;;;;;2.58;94.52;99649.03;5051587;28;20203;-72
2020/12/24 10:10:05;;;;;;;2.47;2.30;;;;;;;2.63;94.94;99650.94;5051617;28;20178;-73
2020/12/24 10:12:31;;;;;;;1.40;1.30;;;;;;;2.65;94.71;99654.94;5051888;28;20675;-73
2020/12/24 10:14:57;;;;;;;1.80;1.70;;;;;;;2.73;94.94;99658.94;5050893;28;20179;-73
2020/12/24 10:17:23;;;;;;;1.50;1.40;;;;;;;2.78;94.71;99660.81;5051537;28;20183;-72
2020/12/24 10:19:51;;;;;;;1.50;1.40;;;;;;;2.75;94.88;99664.88;5051341;28;20210;-73
2020/12/24 10:22:17;;;;;;;1.43;1.33;;;;;;;2.78;94.86;99664.31;5051712;28;20445;-73
2020/12/24 10:24:43;;;;;;;1.43;1.37;;;;;;;2.78;94.54;99667.00;5051334;28;20906;-73
2020/12/24 10:27:09;;;;;;;1.07;0.97;;;;;;;2.84;94.48;99671.28;5051741;28;20685;-74
2020/12/24 10:29:34;;;;;;;1.20;1.20;;;;;;;2.87;94.33;99662.63;5057474;28;20422;-74
2020/12/24 10:32:00;;;;;;;1.87;1.77;;;;;;;2.93;94.70;99666.91;5056325;28;20187;-74
2020/12/24 10:34:25;;;;;;;1.90;1.80;;;;;;;2.97;94.71;99670.66;5052561;28;20184;-72
2020/12/24 10:36:51;;;;;;;2.10;2.00;;;;;;;3.04;94.91;99664.97;5051836;28;20179;-73
2020/12/24 10:39:16;;;;;;;1.30;1.20;;;;;;;3.08;94.62;99666.00;5050221;28;20175;-73
2020/12/24 10:41:48;;;;;;;2.03;1.93;;;;;;;3.06;94.47;99670.09;5051239;28;20560;-74
2020/12/24 10:44:14;;;;;;;0.83;0.83;;;;;;;3.01;94.55;99665.50;5051175;28;20492;-75
2020/12/24 10:46:39;;;;;;;2.23;2.03;;;;;;;3.03;94.60;99666.03;5049835;28;20906;-73
2020/12/24 10:49:04;;;;;;;2.33;2.13;;;;;;;3.05;94.39;99671.16;5051204;28;20213;-73
2020/12/24 10:51:30;;;;;;;1.67;1.57;;;;;;;3.04;94.39;99672.22;5051103;28;20312;-74
2020/12/24 10:53:55;;;;;;;1.80;1.70;;;;;;;3.09;94.97;99669.50;5050035;28;20171;-73
2020/12/24 10:56:21;;;;;;;2.70;2.50;;;;;;;3.13;94.57;99678.66;5050939;28;20171;-73
2020/12/24 10:58:46;;;;;;;5.23;4.93;;;;;;;3.10;94.51;99684.63;5050671;28;20176;-73
2020/12/24 11:01:16;;;;;;;3.97;3.67;;;;;;;3.13;94.32;99686.75;5050936;28;20492;-73
2020/12/24 11:03:42;;;;;;;2.70;2.50;;;;;;;3.13;94.07;99695.66;5050909;28;20167;-73
2020/12/24 11:06:14;;;;;;;2.90;2.70;;;;;;;3.18;94.58;99694.78;5050085;28;20422;-73
2020/12/24 11:08:39;;;;;;;3.40;2.80;;;;;;;3.20;94.33;99692.66;5050359;28;20175;-73
2020/12/24 11:11:05;;;;;;;2.60;2.40;;;;;;;3.24;94.21;99697.19;5050968;28;20834;-73
2020/12/24 11:13:30;;;;;;;1.70;1.60;;;;;;;3.27;93.83;99691.22;5050072;28;20183;-73
2020/12/24 11:15:55;;;;;;;2.03;1.93;;;;;;;3.27;94.26;99690.41;5050514;28;20186;-73
2020/12/24 11:18:21;;;;;;;2.97;2.50;;;;;;;3.31;93.93;99704.16;5050408;28;20196;-72
2020/12/24 11:20:46;;;;;;;1.63;1.53;;;;;;;3.35;93.88;99695.22;5050717;28;20198;-74
2020/12/24 11:23:11;;;;;;;3.77;3.47;;;;;;;3.37;93.54;99701.16;5050672;28;20580;-74
2020/12/24 11:25:37;;;;;;;3.80;3.40;;;;;;;3.39;93.47;99688.16;5050528;28;20171;-73
2020/12/24 11:28:03;;;;;;;1.93;1.77;;;;;;;3.44;93.36;99695.41;5050460;28;20215;-74
2020/12/24 11:30:28;;;;;;;2.70;2.50;;;;;;;3.48;93.16;99702.69;5050628;28;20639;-74
2020/12/24 11:32:55;;;;;;;3.27;2.97;;;;;;;3.57;93.54;99694.75;5049959;28;20475;-72
2020/12/24 11:35:21;;;;;;;2.57;2.10;;;;;;;3.65;93.11;99704.16;5050807;28;20186;-74
2020/12/24 11:37:46;;;;;;;4.33;4.00;;;;;;;3.73;93.30;99707.03;5050447;28;20167;-73
2020/12/24 11:40:12;;;;;;;2.77;2.57;;;;;;;3.72;92.55;99701.94;5050188;28;20202;-73
2020/12/24 11:42:37;;;;;;;1.73;1.63;;;;;;;3.66;92.11;99703.06;5050334;28;20202;-73